sensor_id;sensor_type;location;lat;lon;timestamp;pressure;altitude;pressure_sealevel;temperature;humidity
18275;BME280;19470;49.322;7.218;2023-06-14T00:01:07;98257.94;;;18.15;72.47
18275;BME280;19470;49.322;7.218;2023-06-14T00:03:34;98253.81;;;17.81;74.66
18275;BME280;19470;49.322;7.218;2023-06-14T00:06:02;98246.28;;;17.56;75.49
18275;BME280;19470;49.322;7.218;2023-06-14T00:08:29;98249.22;;;17.41;74.86
18275;BME280;19470;49.322;7.218;2023-06-14T00:10:55;98250.03;;;17.55;75.29
18275;BME280;19470;49.322;7.218;2023-06-14T00:13:22;98253.78;;;17.54;75.98
18275;BME280;19470;49.322;7.218;2023-06-14T00:15:48;98253.00;;;17.67;76.00
18275;BME280;19470;49.322;7.218;2023-06-14T00:18:15;98256.59;;;17.76;76.29
18275;BME280;19470;49.322;7.218;2023-06-14T00:20:41;98249.44;;;17.58;76.75
18275;BME280;19470;49.322;7.218;2023-06-14T00:23:10;98244.09;;;17.58;76.70
18275;BME280;19470;49.322;7.218;2023-06-14T00:25:36;98251.19;;;17.35;77.54
18275;BME280;19470;49.322;7.218;2023-06-14T00:28:03;98254.19;;;17.33;76.31
18275;BME280;19470;49.322;7.218;2023-06-14T00:30:29;98251.72;;;16.91;78.16
18275;BME280;19470;49.322;7.218;2023-06-14T00:32:56;98255.09;;;16.96;77.59
18275;BME280;19470;49.322;7.218;2023-06-14T00:35:22;98254.88;;;17.25;77.41
18275;BME280;19470;49.322;7.218;2023-06-14T00:37:49;98254.50;;;17.32;77.62
18275;BME280;19470;49.322;7.218;2023-06-14T00:40:17;98256.88;;;17.33;77.51
18275;BME280;19470;49.322;7.218;2023-06-14T00:42:43;98257.38;;;17.49;77.36
18275;BME280;19470;49.322;7.218;2023-06-14T00:45:10;98260.03;;;17.35;78.52
18275;BME280;19470;49.322;7.218;2023-06-14T00:47:37;98262.50;;;17.18;78.16
18275;BME280;19470;49.322;7.218;2023-06-14T00:50:14;98258.47;;;17.02;78.69
18275;BME280;19470;49.322;7.218;2023-06-14T00:52:40;98258.31;;;17.12;78.91
18275;BME280;19470;49.322;7.218;2023-06-14T00:55:08;98268.06;;;16.70;79.63
18275;BME280;19470;49.322;7.218;2023-06-14T00:57:36;98261.59;;;17.09;78.54
18275;BME280;19470;49.322;7.218;2023-06-14T01:00:06;98271.09;;;16.82;78.82
18275;BME280;19470;49.322;7.218;2023-06-14T01:02:34;98264.84;;;16.73;80.28
18275;BME280;19470;49.322;7.218;2023-06-14T01:05:02;98274.31;;;16.84;80.44
18275;BME280;19470;49.322;7.218;2023-06-14T01:17:42;98286.81;;;17.03;80.49
18275;BME280;19470;49.322;7.218;2023-06-14T01:20:11;98286.06;;;16.83;81.40
18275;BME280;19470;49.322;7.218;2023-06-14T01:22:49;98281.97;;;16.72;81.75
18275;BME280;19470;49.322;7.218;2023-06-14T01:25:16;98287.25;;;16.77;81.39
18275;BME280;19470;49.322;7.218;2023-06-14T01:27:46;98282.06;;;17.00;79.91
18275;BME280;19470;49.322;7.218;2023-06-14T01:30:13;98284.63;;;16.72;81.30
18275;BME280;19470;49.322;7.218;2023-06-14T01:32:40;98285.88;;;16.94;80.65
18275;BME280;19470;49.322;7.218;2023-06-14T01:35:07;98288.56;;;16.94;80.99
18275;BME280;19470;49.322;7.218;2023-06-14T01:37:34;98282.59;;;16.83;82.27
18275;BME280;19470;49.322;7.218;2023-06-14T01:40:04;98290.13;;;16.81;82.50
18275;BME280;19470;49.322;7.218;2023-06-14T01:42:32;98289.34;;;16.80;82.16
18275;BME280;19470;49.322;7.218;2023-06-14T01:45:00;98294.31;;;16.87;81.68
18275;BME280;19470;49.322;7.218;2023-06-14T01:47:28;98286.28;;;16.68;81.88
18275;BME280;19470;49.322;7.218;2023-06-14T01:49:55;98293.16;;;16.74;82.33
18275;BME280;19470;49.322;7.218;2023-06-14T01:52:22;98293.91;;;16.94;81.17
18275;BME280;19470;49.322;7.218;2023-06-14T01:54:49;98289.53;;;16.65;82.83
18275;BME280;19470;49.322;7.218;2023-06-14T01:57:17;98288.66;;;16.51;83.68
18275;BME280;19470;49.322;7.218;2023-06-14T01:59:43;98293.88;;;16.42;83.47
18275;BME280;19470;49.322;7.218;2023-06-14T02:02:13;98295.25;;;16.58;83.29
18275;BME280;19470;49.322;7.218;2023-06-14T02:04:40;98299.94;;;16.67;82.97
18275;BME280;19470;49.322;7.218;2023-06-14T02:07:07;98294.09;;;16.46;84.01
18275;BME280;19470;49.322;7.218;2023-06-14T02:09:34;98290.53;;;16.50;83.87
18275;BME280;19470;49.322;7.218;2023-06-14T02:12:01;98295.81;;;16.36;84.88
18275;BME280;19470;49.322;7.218;2023-06-14T02:14:29;98293.22;;;16.31;84.11
18275;BME280;19470;49.322;7.218;2023-06-14T02:16:55;98291.25;;;16.37;83.79
18275;BME280;19470;49.322;7.218;2023-06-14T02:19:21;98290.53;;;16.31;84.09
18275;BME280;19470;49.322;7.218;2023-06-14T02:21:48;98294.47;;;15.96;85.75
18275;BME280;19470;49.322;7.218;2023-06-14T02:24:15;98299.97;;;16.05;86.46
18275;BME280;19470;49.322;7.218;2023-06-14T02:26:41;98304.75;;;16.27;85.17
18275;BME280;19470;49.322;7.218;2023-06-14T02:29:08;98307.47;;;16.03;86.71
18275;BME280;19470;49.322;7.218;2023-06-14T02:31:38;98304.47;;;16.09;85.79
18275;BME280;19470;49.322;7.218;2023-06-14T02:34:05;98303.47;;;16.24;85.18
18275;BME280;19470;49.322;7.218;2023-06-14T02:36:34;98307.25;;;15.99;86.68
18275;BME280;19470;49.322;7.218;2023-06-14T02:39:06;98298.59;;;16.07;85.64
18275;BME280;19470;49.322;7.218;2023-06-14T02:41:33;98301.91;;;15.99;86.20
18275;BME280;19470;49.322;7.218;2023-06-14T02:44:00;98308.50;;;16.07;85.29
18275;BME280;19470;49.322;7.218;2023-06-14T02:46:26;98305.06;;;15.82;86.28
18275;BME280;19470;49.322;7.218;2023-06-14T02:48:54;98307.34;;;16.13;85.49
18275;BME280;19470;49.322;7.218;2023-06-14T02:51:20;98309.84;;;16.28;84.69
18275;BME280;19470;49.322;7.218;2023-06-14T02:53:47;98313.78;;;16.12;86.27
18275;BME280;19470;49.322;7.218;2023-06-14T02:59:34;98308.50;;;15.83;86.76
18275;BME280;19470;49.322;7.218;2023-06-14T03:02:01;98304.09;;;15.73;87.45
18275;BME280;19470;49.322;7.218;2023-06-14T03:04:29;98306.13;;;15.81;87.36
18275;BME280;19470;49.322;7.218;2023-06-14T03:07:00;98313.41;;;16.00;86.19
18275;BME280;19470;49.322;7.218;2023-06-14T03:09:28;98310.34;;;15.88;86.57
18275;BME280;19470;49.322;7.218;2023-06-14T03:11:54;98318.22;;;15.98;86.38
18275;BME280;19470;49.322;7.218;2023-06-14T03:14:21;98307.00;;;15.77;87.26
18275;BME280;19470;49.322;7.218;2023-06-14T03:16:47;98314.28;;;15.90;86.88
18275;BME280;19470;49.322;7.218;2023-06-14T03:19:15;98312.59;;;15.75;87.65
18275;BME280;19470;49.322;7.218;2023-06-14T03:21:43;98324.31;;;15.79;87.24
18275;BME280;19470;49.322;7.218;2023-06-14T03:24:10;98311.41;;;15.87;87.20
18275;BME280;19470;49.322;7.218;2023-06-14T03:26:37;98321.19;;;15.72;87.40
18275;BME280;19470;49.322;7.218;2023-06-14T03:29:03;98316.50;;;15.59;87.75
18275;BME280;19470;49.322;7.218;2023-06-14T03:31:30;98327.13;;;15.64;88.30
18275;BME280;19470;49.322;7.218;2023-06-14T03:33:57;98327.63;;;15.95;87.32
18275;BME280;19470;49.322;7.218;2023-06-14T03:36:24;98332.25;;;15.55;88.93
18275;BME280;19470;49.322;7.218;2023-06-14T03:38:52;98323.00;;;15.48;89.19
18275;BME280;19470;49.322;7.218;2023-06-14T03:41:18;98332.25;;;15.55;89.51
18275;BME280;19470;49.322;7.218;2023-06-14T03:43:45;98333.28;;;15.65;89.34
18275;BME280;19470;49.322;7.218;2023-06-14T03:46:11;98333.22;;;15.41;89.16
18275;BME280;19470;49.322;7.218;2023-06-14T03:48:38;98337.94;;;15.78;87.53
18275;BME280;19470;49.322;7.218;2023-06-14T03:51:05;98338.63;;;15.89;87.06
18275;BME280;19470;49.322;7.218;2023-06-14T03:53:31;98332.84;;;16.05;86.59
18275;BME280;19470;49.322;7.218;2023-06-14T03:55:59;98340.66;;;15.73;89.74
18275;BME280;19470;49.322;7.218;2023-06-14T03:58:25;98340.13;;;15.71;89.68
18275;BME280;19470;49.322;7.218;2023-06-14T04:00:53;98348.84;;;15.81;88.56
18275;BME280;19470;49.322;7.218;2023-06-14T04:03:19;98346.44;;;15.80;88.43
18275;BME280;19470;49.322;7.218;2023-06-14T04:05:53;98353.13;;;15.82;88.39
18275;BME280;19470;49.322;7.218;2023-06-14T04:08:24;98352.50;;;15.91;89.08
18275;BME280;19470;49.322;7.218;2023-06-14T04:10:51;98349.78;;;15.96;87.89
18275;BME280;19470;49.322;7.218;2023-06-14T04:13:19;98360.88;;;16.03;87.82
18275;BME280;19470;49.322;7.218;2023-06-14T04:15:45;98353.28;;;16.15;87.12
18275;BME280;19470;49.322;7.218;2023-06-14T04:18:12;98363.06;;;16.01;87.75
18275;BME280;19470;49.322;7.218;2023-06-14T04:20:38;98356.44;;;16.17;88.14
18275;BME280;19470;49.322;7.218;2023-06-14T04:23:12;98367.13;;;16.17;88.89
18275;BME280;19470;49.322;7.218;2023-06-14T04:25:39;98365.31;;;16.13;89.43
18275;BME280;19470;49.322;7.218;2023-06-14T04:28:10;98364.03;;;16.10;89.23
18275;BME280;19470;49.322;7.218;2023-06-14T04:30:38;98374.78;;;16.05;89.43
18275;BME280;19470;49.322;7.218;2023-06-14T04:33:06;98368.56;;;16.09;89.40
18275;BME280;19470;49.322;7.218;2023-06-14T04:35:32;98369.63;;;16.32;88.64
18275;BME280;19470;49.322;7.218;2023-06-14T04:38:01;98373.38;;;16.31;89.36
18275;BME280;19470;49.322;7.218;2023-06-14T04:40:30;98367.69;;;16.38;89.12
18275;BME280;19470;49.322;7.218;2023-06-14T04:42:56;98372.41;;;16.65;88.62
18275;BME280;19470;49.322;7.218;2023-06-14T04:45:23;98363.34;;;16.85;87.50
18275;BME280;19470;49.322;7.218;2023-06-14T04:47:51;98363.09;;;17.00;86.64
18275;BME280;19470;49.322;7.218;2023-06-14T04:50:22;98378.06;;;17.01;86.78
18275;BME280;19470;49.322;7.218;2023-06-14T04:52:49;98378.22;;;17.10;86.28
18275;BME280;19470;49.322;7.218;2023-06-14T04:55:16;98377.88;;;17.30;85.06
18275;BME280;19470;49.322;7.218;2023-06-14T04:57:44;98377.69;;;17.41;84.63
18275;BME280;19470;49.322;7.218;2023-06-14T05:00:11;98379.72;;;17.49;84.99
18275;BME280;19470;49.322;7.218;2023-06-14T05:02:39;98380.03;;;17.47;86.12
18275;BME280;19470;49.322;7.218;2023-06-14T05:05:07;98383.19;;;17.49;86.58
18275;BME280;19470;49.322;7.218;2023-06-14T05:07:34;98385.91;;;17.63;85.89
18275;BME280;19470;49.322;7.218;2023-06-14T05:10:00;98383.97;;;17.96;84.19
18275;BME280;19470;49.322;7.218;2023-06-14T05:12:27;98384.41;;;18.03;82.97
18275;BME280;19470;49.322;7.218;2023-06-14T05:14:54;98379.16;;;18.12;82.05
18275;BME280;19470;49.322;7.218;2023-06-14T05:17:20;98375.44;;;18.49;78.96
18275;BME280;19470;49.322;7.218;2023-06-14T05:19:47;98381.69;;;18.58;78.45
18275;BME280;19470;49.322;7.218;2023-06-14T05:22:15;98387.91;;;18.81;78.28
18275;BME280;19470;49.322;7.218;2023-06-14T05:24:41;98385.53;;;18.80;77.43
18275;BME280;19470;49.322;7.218;2023-06-14T05:27:08;98386.41;;;18.89;78.02
18275;BME280;19470;49.322;7.218;2023-06-14T05:29:34;98384.34;;;19.08;78.53
18275;BME280;19470;49.322;7.218;2023-06-14T05:32:01;98387.69;;;19.36;76.97
18275;BME280;19470;49.322;7.218;2023-06-14T05:34:27;98391.97;;;19.60;74.96
18275;BME280;19470;49.322;7.218;2023-06-14T05:36:54;98390.94;;;19.70;74.78
18275;BME280;19470;49.322;7.218;2023-06-14T05:39:22;98398.75;;;19.88;73.34
18275;BME280;19470;49.322;7.218;2023-06-14T05:41:49;98400.13;;;20.17;72.34
18275;BME280;19470;49.322;7.218;2023-06-14T05:44:15;98389.09;;;20.27;69.66
18275;BME280;19470;49.322;7.218;2023-06-14T05:46:43;98399.34;;;20.65;68.62
18275;BME280;19470;49.322;7.218;2023-06-14T05:49:10;98404.13;;;21.03;66.44
18275;BME280;19470;49.322;7.218;2023-06-14T05:51:37;98396.22;;;21.06;64.91
18275;BME280;19470;49.322;7.218;2023-06-14T05:54:03;98399.22;;;21.31;63.42
18275;BME280;19470;49.322;7.218;2023-06-14T05:56:31;98396.66;;;21.52;62.94
18275;BME280;19470;49.322;7.218;2023-06-14T05:58:57;98393.28;;;21.72;62.38
18275;BME280;19470;49.322;7.218;2023-06-14T06:01:24;98399.66;;;21.59;64.25
18275;BME280;19470;49.322;7.218;2023-06-14T06:03:51;98402.91;;;21.82;60.49
18275;BME280;19470;49.322;7.218;2023-06-14T06:06:18;98412.50;;;22.09;60.85
18275;BME280;19470;49.322;7.218;2023-06-14T06:08:45;98408.34;;;22.20;59.42
18275;BME280;19470;49.322;7.218;2023-06-14T06:11:11;98405.72;;;22.41;59.05
18275;BME280;19470;49.322;7.218;2023-06-14T06:13:39;98406.19;;;22.73;58.34
18275;BME280;19470;49.322;7.218;2023-06-14T06:16:06;98407.06;;;23.06;55.62
18275;BME280;19470;49.322;7.218;2023-06-14T06:18:33;98408.09;;;23.14;56.57
18275;BME280;19470;49.322;7.218;2023-06-14T06:20:59;98414.72;;;23.37;55.44
18275;BME280;19470;49.322;7.218;2023-06-14T06:23:26;98418.84;;;23.56;53.17
18275;BME280;19470;49.322;7.218;2023-06-14T06:25:52;98413.28;;;23.73;52.16
18275;BME280;19470;49.322;7.218;2023-06-14T06:28:19;98417.47;;;23.83;52.96
18275;BME280;19470;49.322;7.218;2023-06-14T06:30:46;98417.28;;;24.00;51.38
18275;BME280;19470;49.322;7.218;2023-06-14T06:33:13;98422.38;;;24.14;53.03
18275;BME280;19470;49.322;7.218;2023-06-14T06:35:40;98418.09;;;24.25;50.98
18275;BME280;19470;49.322;7.218;2023-06-14T06:38:06;98424.19;;;24.10;49.43
18275;BME280;19470;49.322;7.218;2023-06-14T06:40:34;98424.66;;;24.36;49.20
18275;BME280;19470;49.322;7.218;2023-06-14T06:43:01;98425.31;;;24.33;47.65
18275;BME280;19470;49.322;7.218;2023-06-14T06:45:28;98433.41;;;24.82;47.17
18275;BME280;19470;49.322;7.218;2023-06-14T06:47:57;98427.16;;;25.18;45.72
18275;BME280;19470;49.322;7.218;2023-06-14T06:50:23;98429.56;;;24.95;46.48
18275;BME280;19470;49.322;7.218;2023-06-14T06:52:50;98432.56;;;25.18;46.14
18275;BME280;19470;49.322;7.218;2023-06-14T06:55:16;98434.81;;;25.16;46.11
18275;BME280;19470;49.322;7.218;2023-06-14T06:57:43;98441.28;;;24.87;45.78
18275;BME280;19470;49.322;7.218;2023-06-14T07:00:10;98443.03;;;25.32;45.21
18275;BME280;19470;49.322;7.218;2023-06-14T07:02:37;98442.31;;;24.83;45.51
18275;BME280;19470;49.322;7.218;2023-06-14T07:05:06;98441.13;;;25.48;44.84
18275;BME280;19470;49.322;7.218;2023-06-14T07:07:32;98447.81;;;25.67;43.97
18275;BME280;19470;49.322;7.218;2023-06-14T07:09:59;98451.19;;;25.20;44.91
18275;BME280;19470;49.322;7.218;2023-06-14T07:12:25;98444.56;;;25.89;43.81
18275;BME280;19470;49.322;7.218;2023-06-14T07:14:51;98447.66;;;25.60;44.61
18275;BME280;19470;49.322;7.218;2023-06-14T07:17:18;98453.59;;;25.93;44.87
18275;BME280;19470;49.322;7.218;2023-06-14T07:19:44;98448.72;;;26.46;42.31
18275;BME280;19470;49.322;7.218;2023-06-14T07:22:12;98450.69;;;25.86;43.38
18275;BME280;19470;49.322;7.218;2023-06-14T07:24:39;98449.06;;;26.13;44.08
18275;BME280;19470;49.322;7.218;2023-06-14T07:27:05;98444.66;;;26.40;44.06
18275;BME280;19470;49.322;7.218;2023-06-14T07:29:33;98440.19;;;26.32;43.04
18275;BME280;19470;49.322;7.218;2023-06-14T07:31:59;98439.41;;;26.47;43.31
18275;BME280;19470;49.322;7.218;2023-06-14T07:34:26;98445.25;;;25.86;43.22
18275;BME280;19470;49.322;7.218;2023-06-14T07:36:52;98447.81;;;25.67;44.36
18275;BME280;19470;49.322;7.218;2023-06-14T07:39:20;98441.97;;;26.40;42.78
18275;BME280;19470;49.322;7.218;2023-06-14T07:41:47;98444.63;;;26.72;42.75
18275;BME280;19470;49.322;7.218;2023-06-14T07:44:13;98452.19;;;25.99;43.71
18275;BME280;19470;49.322;7.218;2023-06-14T07:46:41;98456.84;;;25.99;44.27
18275;BME280;19470;49.322;7.218;2023-06-14T07:49:07;98453.09;;;26.86;42.69
18275;BME280;19470;49.322;7.218;2023-06-14T07:51:34;98452.84;;;26.91;42.52
18275;BME280;19470;49.322;7.218;2023-06-14T07:54:00;98449.34;;;26.75;43.42
18275;BME280;19470;49.322;7.218;2023-06-14T07:56:28;98443.69;;;26.99;43.09
18275;BME280;19470;49.322;7.218;2023-06-14T07:58:55;98445.41;;;27.08;42.25
18275;BME280;19470;49.322;7.218;2023-06-14T08:01:21;98446.16;;;27.24;43.23
18275;BME280;19470;49.322;7.218;2023-06-14T08:03:50;98442.03;;;28.15;40.65
18275;BME280;19470;49.322;7.218;2023-06-14T08:06:17;98448.50;;;28.07;40.80
18275;BME280;19470;49.322;7.218;2023-06-14T08:08:43;98449.28;;;27.65;41.04
18275;BME280;19470;49.322;7.218;2023-06-14T08:11:10;98447.53;;;27.95;40.90
18275;BME280;19470;49.322;7.218;2023-06-14T08:13:37;98449.66;;;27.83;38.67
18275;BME280;19470;49.322;7.218;2023-06-14T08:16:04;98439.84;;;27.78;39.70
18275;BME280;19470;49.322;7.218;2023-06-14T08:18:31;98455.38;;;28.46;38.67
18275;BME280;19470;49.322;7.218;2023-06-14T08:20:57;98453.50;;;28.50;38.15
18275;BME280;19470;49.322;7.218;2023-06-14T08:23:23;98451.09;;;28.72;38.14
18275;BME280;19470;49.322;7.218;2023-06-14T08:25:51;98455.13;;;28.32;39.30
18275;BME280;19470;49.322;7.218;2023-06-14T08:28:17;98455.09;;;29.38;37.18
18275;BME280;19470;49.322;7.218;2023-06-14T08:30:45;98449.94;;;28.73;38.36
18275;BME280;19470;49.322;7.218;2023-06-14T08:33:12;98454.09;;;29.20;37.32
18275;BME280;19470;49.322;7.218;2023-06-14T08:35:38;98453.41;;;28.96;39.18
18275;BME280;19470;49.322;7.218;2023-06-14T08:38:04;98451.94;;;28.76;39.50
18275;BME280;19470;49.322;7.218;2023-06-14T08:40:31;98452.44;;;29.12;37.68
18275;BME280;19470;49.322;7.218;2023-06-14T08:43:03;98461.59;;;28.96;38.19
18275;BME280;19470;49.322;7.218;2023-06-14T08:45:29;98451.91;;;29.63;36.99
18275;BME280;19470;49.322;7.218;2023-06-14T08:47:57;98451.59;;;29.08;37.16
18275;BME280;19470;49.322;7.218;2023-06-14T08:50:25;98451.56;;;29.34;36.56
18275;BME280;19470;49.322;7.218;2023-06-14T08:52:56;98447.41;;;29.14;36.20
18275;BME280;19470;49.322;7.218;2023-06-14T08:55:26;98453.38;;;29.23;36.31
18275;BME280;19470;49.322;7.218;2023-06-14T08:57:55;98445.34;;;29.71;35.52
18275;BME280;19470;49.322;7.218;2023-06-14T09:00:23;98449.06;;;29.89;35.79
18275;BME280;19470;49.322;7.218;2023-06-14T09:02:49;98446.66;;;29.17;36.54
18275;BME280;19470;49.322;7.218;2023-06-14T09:05:22;98449.09;;;30.37;35.08
18275;BME280;19470;49.322;7.218;2023-06-14T09:07:49;98448.81;;;30.53;34.39
18275;BME280;19470;49.322;7.218;2023-06-14T09:10:16;98445.56;;;30.95;34.82
18275;BME280;19470;49.322;7.218;2023-06-14T09:12:42;98439.28;;;32.03;33.39
18275;BME280;19470;49.322;7.218;2023-06-14T09:15:09;98433.50;;;29.97;34.73
18275;BME280;19470;49.322;7.218;2023-06-14T09:17:37;98450.41;;;30.58;34.00
18275;BME280;19470;49.322;7.218;2023-06-14T09:20:05;98447.75;;;31.41;33.01
18275;BME280;19470;49.322;7.218;2023-06-14T09:22:35;98441.22;;;31.99;31.36
18275;BME280;19470;49.322;7.218;2023-06-14T09:25:02;98449.47;;;32.06;31.41
18275;BME280;19470;49.322;7.218;2023-06-14T09:27:29;98449.69;;;31.30;32.37
18275;BME280;19470;49.322;7.218;2023-06-14T09:29:55;98445.03;;;31.52;31.46
18275;BME280;19470;49.322;7.218;2023-06-14T09:32:22;98448.94;;;31.51;32.08
18275;BME280;19470;49.322;7.218;2023-06-14T09:34:49;98447.91;;;32.34;31.89
18275;BME280;19470;49.322;7.218;2023-06-14T09:37:27;98444.00;;;32.46;30.55
18275;BME280;19470;49.322;7.218;2023-06-14T09:39:56;98445.91;;;32.81;29.65
18275;BME280;19470;49.322;7.218;2023-06-14T09:42:23;98454.84;;;31.60;31.58
18275;BME280;19470;49.322;7.218;2023-06-14T09:44:52;98460.44;;;32.64;30.50
18275;BME280;19470;49.322;7.218;2023-06-14T09:47:19;98460.78;;;31.84;31.42
18275;BME280;19470;49.322;7.218;2023-06-14T09:49:45;98462.13;;;31.20;31.83
18275;BME280;19470;49.322;7.218;2023-06-14T09:52:14;98462.03;;;31.10;31.62
18275;BME280;19470;49.322;7.218;2023-06-14T09:54:42;98463.94;;;32.61;30.04
18275;BME280;19470;49.322;7.218;2023-06-14T09:57:11;98467.06;;;32.98;29.09
18275;BME280;19470;49.322;7.218;2023-06-14T09:59:40;98458.38;;;31.68;30.47
18275;BME280;19470;49.322;7.218;2023-06-14T10:02:11;98468.28;;;32.62;29.86
18275;BME280;19470;49.322;7.218;2023-06-14T10:04:46;98457.59;;;33.06;30.60
18275;BME280;19470;49.322;7.218;2023-06-14T10:07:18;98463.44;;;33.23;27.98
18275;BME280;19470;49.322;7.218;2023-06-14T10:09:46;98463.91;;;32.96;28.80
18275;BME280;19470;49.322;7.218;2023-06-14T10:12:17;98460.41;;;32.78;28.95
18275;BME280;19470;49.322;7.218;2023-06-14T10:14:47;98458.19;;;33.57;27.74
18275;BME280;19470;49.322;7.218;2023-06-14T10:17:22;98457.66;;;33.80;28.11
18275;BME280;19470;49.322;7.218;2023-06-14T10:19:55;98458.38;;;34.43;28.42
18275;BME280;19470;49.322;7.218;2023-06-14T10:22:29;98447.25;;;34.13;27.67
18275;BME280;19470;49.322;7.218;2023-06-14T10:24:57;98447.91;;;32.41;29.52
18275;BME280;19470;49.322;7.218;2023-06-14T10:27:24;98457.38;;;34.23;29.30
18275;BME280;19470;49.322;7.218;2023-06-14T10:30:05;98445.31;;;33.43;28.71
18275;BME280;19470;49.322;7.218;2023-06-14T10:32:31;98449.03;;;32.94;29.40
18275;BME280;19470;49.322;7.218;2023-06-14T10:34:59;98446.13;;;31.26;29.46
18275;BME280;19470;49.322;7.218;2023-06-14T10:37:27;98456.06;;;34.38;28.19
18275;BME280;19470;49.322;7.218;2023-06-14T10:39:53;98455.69;;;33.80;27.86
18275;BME280;19470;49.322;7.218;2023-06-14T10:42:19;98455.31;;;35.17;26.27
18275;BME280;19470;49.322;7.218;2023-06-14T10:44:50;98454.03;;;33.17;28.40
18275;BME280;19470;49.322;7.218;2023-06-14T10:47:23;98458.78;;;33.86;27.54
18275;BME280;19470;49.322;7.218;2023-06-14T10:49:52;98449.91;;;31.03;29.54
18275;BME280;19470;49.322;7.218;2023-06-14T10:52:21;98448.59;;;33.10;29.32
18275;BME280;19470;49.322;7.218;2023-06-14T10:55:04;98447.13;;;34.72;26.16
18275;BME280;19470;49.322;7.218;2023-06-14T10:57:32;98461.31;;;34.67;27.54
18275;BME280;19470;49.322;7.218;2023-06-14T11:00:00;98448.47;;;33.38;28.52
18275;BME280;19470;49.322;7.218;2023-06-14T11:05:50;98462.34;;;30.35;31.79
18275;BME280;19470;49.322;7.218;2023-06-14T11:11:38;98445.88;;;34.80;26.58
18275;BME280;19470;49.322;7.218;2023-06-14T11:14:08;98456.13;;;32.23;27.55
18275;BME280;19470;49.322;7.218;2023-06-14T11:16:36;98456.31;;;33.36;26.75
18275;BME280;19470;49.322;7.218;2023-06-14T11:19:03;98452.41;;;34.55;26.02
18275;BME280;19470;49.322;7.218;2023-06-14T11:21:29;98462.47;;;35.11;25.18
18275;BME280;19470;49.322;7.218;2023-06-14T11:23:58;98445.16;;;36.69;23.50
18275;BME280;19470;49.322;7.218;2023-06-14T11:26:25;98444.91;;;34.94;25.07
18275;BME280;19470;49.322;7.218;2023-06-14T11:28:55;98444.09;;;35.31;23.74
18275;BME280;19470;49.322;7.218;2023-06-14T11:31:23;98446.16;;;35.23;24.43
18275;BME280;19470;49.322;7.218;2023-06-14T11:33:50;98447.91;;;32.48;27.26
18275;BME280;19470;49.322;7.218;2023-06-14T11:36:19;98449.38;;;31.64;27.75
18275;BME280;19470;49.322;7.218;2023-06-14T11:38:45;98447.00;;;33.89;25.77
18275;BME280;19470;49.322;7.218;2023-06-14T11:41:12;98435.78;;;34.66;24.78
18275;BME280;19470;49.322;7.218;2023-06-14T11:43:39;98437.66;;;33.83;24.71
18275;BME280;19470;49.322;7.218;2023-06-14T11:46:12;98446.72;;;32.35;27.11
18275;BME280;19470;49.322;7.218;2023-06-14T11:48:40;98453.47;;;34.65;25.21
18275;BME280;19470;49.322;7.218;2023-06-14T11:51:08;98454.47;;;33.04;26.22
18275;BME280;19470;49.322;7.218;2023-06-14T11:53:36;98455.13;;;33.44;26.12
18275;BME280;19470;49.322;7.218;2023-06-14T11:56:03;98444.41;;;32.48;26.93
18275;BME280;19470;49.322;7.218;2023-06-14T11:58:30;98442.16;;;33.45;26.02
18275;BME280;19470;49.322;7.218;2023-06-14T12:00:57;98443.22;;;31.95;26.87
18275;BME280;19470;49.322;7.218;2023-06-14T12:03:24;98432.41;;;33.29;26.60
18275;BME280;19470;49.322;7.218;2023-06-14T12:05:51;98428.44;;;33.48;25.59
18275;BME280;19470;49.322;7.218;2023-06-14T12:08:33;98426.19;;;33.95;25.99
18275;BME280;19470;49.322;7.218;2023-06-14T12:11:04;98427.84;;;35.71;24.50
18275;BME280;19470;49.322;7.218;2023-06-14T12:13:31;98435.72;;;34.73;24.62
18275;BME280;19470;49.322;7.218;2023-06-14T12:15:57;98455.53;;;34.05;25.44
18275;BME280;19470;49.322;7.218;2023-06-14T12:18:31;98449.25;;;34.91;23.85
18275;BME280;19470;49.322;7.218;2023-06-14T12:20:58;98449.72;;;34.86;24.30
18275;BME280;19470;49.322;7.218;2023-06-14T12:23:41;98443.59;;;32.33;26.42
18275;BME280;19470;49.322;7.218;2023-06-14T12:26:08;98437.13;;;33.29;25.26
18275;BME280;19470;49.322;7.218;2023-06-14T12:28:34;98441.97;;;31.75;27.45
18275;BME280;19470;49.322;7.218;2023-06-14T12:31:01;98429.84;;;32.94;27.23
18275;BME280;19470;49.322;7.218;2023-06-14T12:33:28;98452.16;;;32.92;26.76
18275;BME280;19470;49.322;7.218;2023-06-14T12:35:55;98441.44;;;33.26;26.50
18275;BME280;19470;49.322;7.218;2023-06-14T12:38:23;98434.59;;;32.50;27.16
18275;BME280;19470;49.322;7.218;2023-06-14T12:40:50;98435.38;;;32.33;27.19
18275;BME280;19470;49.322;7.218;2023-06-14T12:43:17;98441.25;;;32.56;27.18
18275;BME280;19470;49.322;7.218;2023-06-14T12:45:44;98444.41;;;32.41;26.91
18275;BME280;19470;49.322;7.218;2023-06-14T12:48:10;98445.94;;;32.20;28.19
18275;BME280;19470;49.322;7.218;2023-06-14T12:50:37;98445.88;;;31.67;27.40
18275;BME280;19470;49.322;7.218;2023-06-14T12:53:03;98448.19;;;30.22;28.41
18275;BME280;19470;49.322;7.218;2023-06-14T12:55:29;98442.75;;;30.77;28.38
18275;BME280;19470;49.322;7.218;2023-06-14T12:57:57;98443.19;;;30.83;28.17
18275;BME280;19470;49.322;7.218;2023-06-14T13:00:24;98444.28;;;31.59;27.93
18275;BME280;19470;49.322;7.218;2023-06-14T13:02:51;98443.59;;;31.97;27.50
18275;BME280;19470;49.322;7.218;2023-06-14T13:05:18;98441.94;;;31.53;27.76
18275;BME280;19470;49.322;7.218;2023-06-14T13:07:44;98438.03;;;31.62;28.01
18275;BME280;19470;49.322;7.218;2023-06-14T13:10:11;98434.50;;;33.00;27.23
18275;BME280;19470;49.322;7.218;2023-06-14T13:12:37;98439.28;;;32.75;27.25
18275;BME280;19470;49.322;7.218;2023-06-14T13:15:06;98437.16;;;33.22;27.18
18275;BME280;19470;49.322;7.218;2023-06-14T13:17:33;98437.47;;;33.45;26.57
18275;BME280;19470;49.322;7.218;2023-06-14T13:20:04;98440.84;;;32.65;26.52
18275;BME280;19470;49.322;7.218;2023-06-14T13:22:30;98448.38;;;33.60;26.16